Strona główna
METAR-TAF:

METAR-TAF

Lotnisko :

Port lotniczy Norwich

Norwich, Anglia

Szerokość geograficzna: 52-38N, Długość geograficzna: 001-18E, wysokość: 14 m

Aktualna obserwacja pogody

Raport powstał 50 minut temu, godzina 17:50 UTC
Wiatr 7 kt od wschód, zmienny między północny wschód i południowy wschód
Temperatura 17°C
Wilgotność 59%
Ciśnienie 1025 hPa
Widzialność 10 km lub więcej
Brak chmur poniżej 1500 m i brak chmur cumulonimbus

METAR: EGSH 121750Z 09007KT 050V130 CAVOK 17/09 Q1025 NOSIG

czas: 19:40 (18:40 UTC)

Prognoza

Raport powstał 1 godzina i 44 minut temu, godzina 16:56 UTC
Prognoza ważna od 12 godzina 18 UTC do 13 godzina 03 UTC
Wiatr 5 kt od północny wschód
Widzialność 10 km lub więcej
Rozproszone chmury na wysokości 3500 ft

TAF: EGSH 121656Z 1218/1303 05005KT 9999 SCT035

Obserwacja i prognoza pogody dla ponad 4000 lotnisk (raport METAR i TAF).

Dostępne stacje oznaczono żółtymi i czerwonymi punktami na mapie.

Najedź kursorem aby zobaczyć nazwę stacji.

Kliknij aby zobaczyć obserwacje i prognozy pogody.

Aby zmienić mapę: kliknij na zielony przycisk z czarnym krzyżykiem, aby powiększyć; na zielony przycisk z myślnikiem, aby pomniejszyć; na zielone strzałki, aby przejść do map sąsiednich.


METAR-TAF: